createdAt,value
2023-11-27T00:00:58.161Z,1.40
2023-11-27T00:03:26.752Z,1.35
2023-11-27T00:05:54.506Z,2.25
2023-11-27T00:08:22.145Z,2.40
2023-11-27T00:10:51.167Z,2.22
2023-11-27T00:13:18.982Z,2.03
2023-11-27T00:15:46.849Z,1.42
2023-11-27T00:18:14.571Z,1.63
2023-11-27T00:20:42.322Z,1.30
2023-11-27T00:23:11.082Z,1.77
2023-11-27T00:25:38.801Z,1.23
2023-11-27T00:28:09.026Z,0.80
2023-11-27T00:30:37.871Z,1.48
2023-11-27T00:33:05.778Z,1.30
2023-11-27T00:35:33.525Z,2.47
2023-11-27T00:38:01.221Z,1.33
2023-11-27T00:40:28.966Z,1.02
2023-11-27T00:42:56.706Z,1.15
2023-11-27T00:45:25.766Z,1.25
2023-11-27T00:47:53.527Z,1.05
2023-11-27T00:50:21.206Z,1.20
2023-11-27T00:52:48.910Z,1.75
2023-11-27T00:55:16.721Z,1.38
2023-11-27T00:57:44.480Z,1.48
2023-11-27T01:00:14.220Z,1.00
2023-11-27T01:02:43.350Z,1.75
2023-11-27T01:05:11.309Z,1.45
2023-11-27T01:07:39.019Z,1.27
2023-11-27T01:10:08.209Z,1.90
2023-11-27T01:12:39.468Z,1.48
2023-11-27T01:15:08.959Z,1.20
2023-11-27T01:17:36.648Z,1.48
2023-11-27T01:20:06.669Z,1.23
2023-11-27T01:22:34.403Z,1.40
2023-11-27T01:25:02.410Z,1.38
2023-11-27T01:27:30.141Z,1.17
2023-11-27T01:29:57.812Z,1.42
2023-11-27T01:32:26.287Z,1.30
2023-11-27T01:34:54.553Z,1.10
2023-11-27T01:37:24.636Z,1.10
2023-11-27T01:39:52.340Z,0.90
2023-11-27T01:42:20.040Z,1.80
2023-11-27T01:44:48.033Z,1.65
2023-11-27T01:47:16.752Z,1.33
2023-11-27T01:49:45.685Z,1.98
2023-11-27T01:52:14.650Z,2.03
2023-11-27T01:54:44.946Z,1.90
2023-11-27T01:57:16.825Z,1.33
2023-11-27T01:59:45.266Z,1.65
2023-11-27T02:02:14.524Z,1.40
2023-11-27T02:04:42.943Z,1.70
2023-11-27T02:07:13.102Z,1.30
2023-11-27T02:09:40.888Z,1.55
2023-11-27T02:12:10.071Z,1.15
2023-11-27T02:14:37.703Z,1.05
2023-11-27T02:17:05.689Z,1.27
2023-11-27T02:19:33.390Z,1.13
2023-11-27T02:22:01.114Z,1.60
2023-11-27T02:24:30.097Z,1.17
2023-11-27T02:26:57.773Z,2.47
2023-11-27T02:29:25.467Z,1.58
2023-11-27T02:31:53.260Z,0.82
2023-11-27T02:34:21.089Z,1.63
2023-11-27T02:36:48.871Z,1.40
2023-11-27T02:39:16.664Z,1.33
2023-11-27T02:41:45.698Z,1.30
2023-11-27T02:44:13.407Z,1.20
2023-11-27T02:46:42.204Z,1.13
2023-11-27T02:49:09.955Z,1.30
2023-11-27T02:51:40.176Z,1.52
2023-11-27T02:54:08.192Z,1.02
2023-11-27T02:56:35.864Z,1.45
2023-11-27T02:59:04.860Z,1.80
2023-11-27T03:01:32.675Z,0.90
2023-11-27T03:04:00.423Z,1.40
2023-11-27T03:06:28.148Z,2.00
2023-11-27T03:08:55.792Z,1.10
2023-11-27T03:11:23.472Z,0.95
2023-11-27T03:13:51.171Z,1.23
2023-11-27T03:16:20.301Z,1.23
2023-11-27T03:18:48.141Z,1.33
2023-11-27T03:21:22.359Z,1.27
2023-11-27T03:23:50.242Z,1.00
2023-11-27T03:26:18.854Z,1.15
2023-11-27T03:28:46.565Z,1.10
2023-11-27T03:31:14.361Z,1.27
2023-11-27T03:33:43.503Z,1.40
2023-11-27T03:36:11.852Z,1.63
2023-11-27T03:38:39.524Z,1.00
2023-11-27T03:41:09.378Z,1.15
2023-11-27T03:43:37.067Z,1.67
2023-11-27T03:46:04.907Z,1.30
2023-11-27T03:48:32.780Z,1.60
2023-11-27T03:51:01.926Z,1.40
2023-11-27T03:53:29.903Z,1.15
2023-11-27T03:55:57.592Z,1.30
2023-11-27T03:58:25.267Z,1.15
2023-11-27T04:00:53.971Z,1.27
2023-11-27T04:03:21.770Z,1.20
2023-11-27T04:05:49.734Z,1.00
2023-11-27T04:08:19.668Z,1.35
2023-11-27T04:10:47.452Z,1.20
2023-11-27T04:13:15.130Z,1.70
2023-11-27T04:15:43.800Z,0.90
2023-11-27T04:18:11.602Z,1.13
2023-11-27T04:20:39.877Z,1.40
2023-11-27T04:23:07.540Z,1.58
2023-11-27T04:25:36.550Z,1.20
2023-11-27T04:28:04.548Z,1.23
2023-11-27T04:30:32.802Z,1.27
2023-11-27T04:33:00.908Z,1.40
2023-11-27T04:35:28.667Z,1.58
2023-11-27T04:37:56.416Z,1.30
2023-11-27T04:40:24.095Z,1.35
2023-11-27T04:42:53.607Z,0.98
2023-11-27T04:45:21.516Z,1.33
2023-11-27T04:47:49.267Z,1.30
2023-11-27T04:50:17.077Z,2.08
2023-11-27T04:52:44.806Z,1.27
2023-11-27T04:55:12.570Z,1.33
2023-11-27T04:57:40.341Z,1.55
2023-11-27T05:00:13.182Z,1.50
2023-11-27T05:02:41.074Z,1.05
2023-11-27T05:05:08.891Z,1.27
2023-11-27T05:07:36.643Z,1.23
2023-11-27T05:10:04.717Z,1.40
2023-11-27T05:12:33.634Z,1.35
2023-11-27T05:15:02.940Z,1.48
2023-11-27T05:17:32.007Z,1.27
2023-11-27T05:19:59.763Z,1.15
2023-11-27T05:22:27.720Z,1.23
2023-11-27T05:24:55.402Z,1.40
2023-11-27T05:27:24.697Z,1.50
2023-11-27T05:29:52.349Z,1.85
2023-11-27T05:32:20.106Z,1.60
2023-11-27T05:34:49.099Z,1.23
2023-11-27T05:37:16.820Z,1.25
2023-11-27T05:39:44.561Z,1.20
2023-11-27T05:42:12.889Z,1.60
2023-11-27T05:44:41.309Z,1.30
2023-11-27T05:47:09.405Z,1.30
2023-11-27T05:49:38.436Z,1.15
2023-11-27T05:52:08.282Z,1.65
2023-11-27T05:54:36.129Z,1.63
2023-11-27T05:57:03.911Z,1.02
2023-11-27T05:59:31.669Z,1.10
2023-11-27T06:01:59.460Z,1.67
2023-11-27T06:04:28.019Z,1.55
2023-11-27T06:06:55.850Z,1.30
2023-11-27T06:09:24.880Z,1.63
2023-11-27T06:11:54.252Z,1.42
2023-11-27T06:14:21.939Z,1.58
2023-11-27T06:16:49.676Z,1.20
2023-11-27T06:19:17.519Z,1.15
2023-11-27T06:21:45.187Z,1.75
2023-11-27T06:24:12.879Z,1.30
2023-11-27T06:26:41.904Z,1.33
2023-11-27T06:29:09.576Z,1.80
2023-11-27T06:31:37.358Z,1.60
2023-11-27T06:34:05.123Z,0.85
2023-11-27T06:36:32.725Z,1.58
2023-11-27T06:39:00.679Z,1.52
2023-11-27T06:41:28.422Z,2.15
2023-11-27T06:43:57.428Z,2.10
2023-11-27T06:46:25.239Z,1.48
2023-11-27T06:48:52.920Z,1.55
2023-11-27T06:51:20.614Z,1.40
2023-11-27T06:53:48.284Z,0.98
2023-11-27T06:56:16.072Z,1.33
2023-11-27T06:58:43.756Z,1.73
2023-11-27T07:01:13.630Z,1.20
2023-11-27T07:03:41.888Z,1.33
2023-11-27T07:06:10.374Z,0.98
2023-11-27T07:08:38.417Z,1.70
2023-11-27T07:11:07.846Z,1.15
2023-11-27T07:13:35.634Z,1.70
2023-11-27T07:16:03.399Z,1.10
2023-11-27T07:18:34.371Z,1.27
2023-11-27T07:21:02.837Z,1.55
2023-11-27T07:23:30.708Z,1.50
2023-11-27T07:25:58.455Z,1.38
2023-11-27T07:28:27.173Z,1.88
2023-11-27T07:30:55.917Z,2.05
2023-11-27T07:33:25.274Z,1.08
2023-11-27T07:35:54.506Z,1.50
2023-11-27T07:38:22.255Z,1.30
2023-11-27T07:40:49.975Z,1.73
2023-11-27T07:43:17.759Z,2.05
2023-11-27T07:45:46.144Z,1.90
2023-11-27T07:48:13.983Z,2.42
2023-11-27T07:50:42.091Z,1.23
2023-11-27T07:53:11.186Z,2.13
2023-11-27T07:55:38.982Z,1.70
2023-11-27T07:58:06.821Z,1.70
2023-11-27T08:00:34.960Z,1.45
2023-11-27T08:03:02.925Z,1.25
2023-11-27T08:05:30.961Z,1.58
2023-11-27T08:07:58.898Z,1.48
2023-11-27T08:10:31.990Z,1.20
2023-11-27T08:12:59.670Z,1.80
2023-11-27T08:15:27.382Z,1.65
2023-11-27T08:17:56.758Z,1.42
2023-11-27T08:20:29.232Z,1.25
2023-11-27T08:22:59.022Z,1.65
2023-11-27T08:25:29.141Z,1.88
2023-11-27T08:27:57.963Z,1.38
2023-11-27T08:30:25.919Z,1.27
2023-11-27T08:32:53.696Z,1.42
2023-11-27T08:35:21.461Z,1.73
2023-11-27T08:37:50.417Z,2.85
2023-11-27T08:40:18.318Z,2.15
2023-11-27T08:42:47.501Z,2.42
2023-11-27T08:45:17.465Z,1.70
2023-11-27T08:47:51.379Z,1.33
2023-11-27T08:50:20.263Z,1.02
2023-11-27T08:52:49.983Z,1.52
2023-11-27T08:55:19.887Z,1.02
2023-11-27T08:57:49.473Z,1.88
2023-11-27T09:00:20.090Z,1.50
2023-11-27T09:02:49.333Z,2.42
2023-11-27T09:05:17.193Z,1.50
2023-11-27T09:07:45.026Z,1.40
2023-11-27T09:10:12.693Z,1.95
2023-11-27T09:12:40.421Z,1.20
2023-11-27T09:15:10.787Z,1.90
2023-11-27T09:17:39.901Z,1.63
2023-11-27T09:20:11.176Z,2.58
2023-11-27T09:22:38.888Z,1.48
2023-11-27T09:25:10.183Z,1.75
2023-11-27T09:27:37.957Z,1.70
2023-11-27T09:30:08.087Z,1.80
2023-11-27T09:32:37.555Z,1.30
2023-11-27T09:35:06.687Z,1.55
2023-11-27T09:37:37.295Z,1.52
2023-11-27T09:40:06.552Z,1.30
2023-11-27T09:42:45.819Z,2.45
2023-11-27T09:45:17.777Z,1.65
2023-11-27T09:47:50.145Z,1.30
2023-11-27T09:50:20.662Z,2.85
2023-11-27T09:52:54.426Z,2.63
2023-11-27T09:55:22.568Z,4.45
2023-11-27T09:57:51.039Z,2.10
2023-11-27T10:00:21.472Z,2.63
2023-11-27T10:02:51.968Z,3.95
2023-11-27T10:05:23.051Z,3.45
2023-11-27T10:07:52.022Z,2.75
2023-11-27T10:10:27.485Z,1.67
2023-11-27T10:12:59.068Z,1.73
2023-11-27T10:15:29.050Z,1.60
2023-11-27T10:18:03.054Z,1.77
2023-11-27T10:20:32.815Z,1.48
2023-11-27T10:23:03.098Z,3.50
2023-11-27T10:25:31.420Z,1.45
2023-11-27T10:28:01.364Z,2.55
2023-11-27T10:30:31.935Z,2.78
2023-11-27T10:33:02.561Z,3.20
2023-11-27T10:35:34.124Z,4.03
2023-11-27T10:38:05.149Z,3.17
2023-11-27T10:40:34.873Z,4.22
2023-11-27T10:43:03.188Z,3.10
2023-11-27T10:45:34.245Z,3.67
2023-11-27T10:48:04.523Z,4.18
2023-11-27T10:50:33.785Z,3.60
2023-11-27T10:53:02.533Z,3.08
2023-11-27T10:55:31.836Z,2.13
2023-11-27T10:58:02.354Z,4.38
2023-11-27T11:00:33.984Z,2.88
2023-11-27T11:03:08.025Z,2.25
2023-11-27T11:05:44.085Z,1.90
2023-11-27T11:08:11.984Z,2.60
2023-11-27T11:10:42.776Z,1.70
2023-11-27T11:13:14.462Z,2.03
2023-11-27T11:15:50.329Z,2.28
2023-11-27T11:18:30.169Z,3.40
2023-11-27T11:21:22.491Z,3.00
2023-11-27T11:24:00.654Z,3.22
2023-11-27T11:26:48.548Z,3.30
2023-11-27T11:29:26.989Z,4.50
2023-11-27T11:32:00.932Z,2.83
2023-11-27T11:34:34.000Z,3.60
2023-11-27T11:37:04.686Z,2.92
2023-11-27T11:39:33.724Z,2.83
2023-11-27T11:42:03.953Z,2.53
2023-11-27T11:44:34.322Z,2.67
2023-11-27T11:47:07.883Z,2.70
2023-11-27T11:49:37.084Z,2.97
2023-11-27T11:52:09.266Z,2.97
2023-11-27T11:54:40.120Z,3.05
2023-11-27T11:57:18.596Z,3.05
2023-11-27T11:59:47.405Z,2.78
2023-11-27T12:02:20.370Z,4.22
2023-11-27T12:04:53.396Z,3.33
2023-11-27T12:07:23.169Z,1.40
2023-11-27T12:09:52.398Z,2.33
2023-11-27T12:12:21.656Z,2.38
2023-11-27T12:14:49.246Z,2.03
2023-11-27T12:17:21.505Z,2.85
2023-11-27T12:19:51.807Z,2.30
2023-11-27T12:22:20.914Z,3.88
2023-11-27T12:24:49.011Z,2.38
2023-11-27T12:27:16.743Z,2.38
2023-11-27T12:29:50.357Z,1.95
2023-11-27T12:32:21.295Z,2.95
2023-11-27T12:34:51.436Z,1.20
2023-11-27T12:37:19.639Z,1.70
2023-11-27T12:39:53.755Z,1.33
2023-11-27T12:42:22.529Z,2.25
2023-11-27T12:44:51.511Z,2.00
2023-11-27T12:47:22.439Z,2.55
2023-11-27T12:49:54.323Z,4.53
2023-11-27T12:52:22.327Z,4.22
2023-11-27T12:54:55.992Z,2.38
2023-11-27T12:57:23.957Z,1.90
2023-11-27T12:59:51.608Z,3.15
2023-11-27T13:02:22.182Z,3.15
2023-11-27T13:04:54.903Z,3.53
2023-11-27T13:07:24.598Z,4.13
2023-11-27T13:09:53.609Z,2.03
2023-11-27T13:12:21.521Z,2.17
2023-11-27T13:14:50.662Z,2.03
2023-11-27T13:17:21.923Z,1.67
2023-11-27T13:19:52.379Z,1.70
2023-11-27T13:22:20.240Z,1.70
2023-11-27T13:24:51.460Z,1.02
2023-11-27T13:27:22.801Z,1.00
2023-11-27T13:29:52.343Z,1.77
2023-11-27T13:32:20.517Z,2.25
2023-11-27T13:34:57.653Z,1.65
2023-11-27T13:37:28.036Z,1.83
2023-11-27T13:39:59.202Z,1.50
2023-11-27T13:42:31.190Z,1.95
2023-11-27T13:44:59.339Z,0.90
2023-11-27T13:47:27.431Z,1.20
2023-11-27T13:49:57.290Z,1.00
2023-11-27T13:52:29.979Z,1.20
2023-11-27T13:55:00.923Z,1.55
2023-11-27T13:57:32.263Z,1.17
2023-11-27T14:00:01.069Z,0.90
2023-11-27T14:02:32.328Z,1.77
2023-11-27T14:05:08.364Z,1.10
2023-11-27T14:07:41.051Z,1.48
2023-11-27T14:10:23.483Z,1.83
2023-11-27T14:12:57.651Z,1.30
2023-11-27T14:15:25.362Z,1.45
2023-11-27T14:18:19.758Z,1.23
2023-11-27T14:20:47.209Z,1.20
2023-11-27T14:23:26.484Z,1.30
2023-11-27T14:26:22.544Z,1.33
2023-11-27T14:29:01.674Z,1.00
2023-11-27T14:31:31.065Z,1.40
2023-11-27T14:33:58.814Z,1.92
2023-11-27T14:36:30.082Z,1.33
2023-11-27T14:38:59.475Z,1.42
2023-11-27T14:41:29.551Z,1.73
2023-11-27T14:43:57.232Z,0.93
2023-11-27T14:46:27.229Z,1.02
2023-11-27T14:48:55.040Z,1.25
2023-11-27T14:51:22.905Z,1.00
2023-11-27T14:53:56.837Z,1.10
2023-11-27T14:56:27.505Z,1.02
2023-11-27T14:58:57.761Z,1.20
2023-11-27T15:01:26.864Z,1.30
2023-11-27T15:03:57.810Z,1.45
2023-11-27T15:06:26.879Z,1.20
2023-11-27T15:08:55.435Z,0.82
2023-11-27T15:11:24.994Z,0.98
2023-11-27T15:13:52.851Z,1.30
2023-11-27T15:16:25.096Z,0.90
2023-11-27T15:18:53.528Z,0.98
2023-11-27T15:21:21.360Z,1.00
2023-11-27T15:23:49.217Z,1.85
2023-11-27T15:26:17.748Z,1.20
2023-11-27T15:28:48.114Z,1.67
2023-11-27T15:31:18.242Z,1.63
2023-11-27T15:33:48.079Z,0.90
2023-11-27T15:36:17.876Z,0.80
2023-11-27T15:38:45.858Z,0.85
2023-11-27T15:41:14.065Z,1.27
2023-11-27T15:43:42.829Z,0.88
2023-11-27T15:46:12.358Z,0.55
2023-11-27T15:48:40.597Z,0.52
2023-11-27T15:51:10.479Z,1.17
2023-11-27T15:53:38.182Z,1.25
2023-11-27T15:56:09.902Z,1.13
2023-11-27T15:58:37.909Z,0.95
2023-11-27T16:01:06.185Z,1.13
2023-11-27T16:03:33.981Z,0.93
2023-11-27T16:06:03.672Z,1.20
2023-11-27T16:08:33.429Z,1.05
2023-11-27T16:11:02.181Z,1.08
2023-11-27T16:13:31.619Z,1.33
2023-11-27T16:15:59.454Z,1.00
2023-11-27T16:18:30.950Z,2.30
2023-11-27T16:21:00.033Z,1.10
2023-11-27T16:23:28.539Z,1.02
2023-11-27T16:25:57.848Z,1.05
2023-11-27T16:28:25.794Z,2.05
2023-11-27T16:30:53.537Z,1.10
2023-11-27T16:33:21.179Z,1.15
2023-11-27T16:35:48.838Z,1.70
2023-11-27T16:38:16.170Z,1.95
2023-11-27T16:40:43.960Z,1.17
2023-11-27T16:43:13.121Z,1.52
2023-11-27T16:45:41.248Z,1.23
2023-11-27T16:48:09.182Z,1.23
2023-11-27T16:50:37.237Z,1.00
2023-11-27T16:53:04.969Z,1.10
2023-11-27T16:55:33.393Z,1.83
2023-11-27T16:58:06.110Z,1.38
2023-11-27T17:00:37.775Z,1.00
2023-11-27T17:03:08.921Z,1.25
2023-11-27T17:05:39.093Z,0.90
2023-11-27T17:08:11.037Z,1.48
2023-11-27T17:10:41.183Z,1.70
2023-11-27T17:13:11.585Z,3.30
2023-11-27T17:15:43.871Z,5.78
2023-11-27T17:18:12.152Z,7.55
2023-11-27T17:20:40.819Z,6.43
2023-11-27T17:23:09.052Z,8.32
2023-11-27T17:25:37.848Z,5.80
2023-11-27T17:28:07.810Z,7.85
2023-11-27T17:30:35.918Z,10.23
2023-11-27T17:33:05.364Z,6.75
2023-11-27T17:35:34.521Z,7.53
2023-11-27T17:38:03.863Z,8.75
2023-11-27T17:40:31.733Z,11.68
2023-11-27T17:43:00.325Z,10.48
2023-11-27T17:45:29.041Z,5.97
2023-11-27T17:47:56.813Z,10.40
2023-11-27T17:50:26.008Z,6.05
2023-11-27T17:52:56.444Z,5.03
2023-11-27T17:55:26.731Z,12.15
2023-11-27T17:57:56.375Z,11.77
2023-11-27T18:00:24.667Z,9.43
2023-11-27T18:02:53.764Z,5.47
2023-11-27T18:05:24.645Z,7.65
2023-11-27T18:07:54.847Z,7.05
2023-11-27T18:10:24.320Z,8.10
2023-11-27T18:12:53.881Z,7.18
2023-11-27T18:15:21.717Z,9.00
2023-11-27T18:17:52.123Z,7.63
2023-11-27T18:20:22.923Z,3.83
2023-11-27T18:22:50.761Z,5.70
2023-11-27T18:25:22.328Z,4.05
2023-11-27T18:30:18.569Z,5.45
2023-11-27T18:32:46.484Z,4.72
2023-11-27T18:35:16.989Z,8.57
2023-11-27T18:37:47.377Z,5.05
2023-11-27T18:40:16.296Z,8.25
2023-11-27T18:42:46.612Z,5.03
2023-11-27T18:45:18.842Z,5.05
2023-11-27T18:47:47.147Z,7.50
2023-11-27T18:50:13.949Z,5.22
2023-11-27T18:52:43.273Z,4.85
2023-11-27T18:55:11.613Z,4.82
2023-11-27T18:57:39.271Z,6.45
2023-11-27T19:00:15.136Z,4.80
2023-11-27T19:02:44.180Z,7.10
2023-11-27T19:05:13.374Z,2.17
2023-11-27T19:07:42.028Z,4.90
2023-11-27T19:10:10.959Z,6.25
2023-11-27T19:12:40.912Z,4.90
2023-11-27T19:15:11.009Z,3.88
2023-11-27T19:17:38.914Z,4.15
2023-11-27T19:20:11.520Z,4.15
2023-11-27T19:22:39.504Z,4.03
2023-11-27T19:25:11.388Z,3.47
2023-11-27T19:27:40.145Z,4.82
2023-11-27T19:30:10.919Z,5.32
2023-11-27T19:32:40.460Z,6.38
2023-11-27T19:35:09.733Z,7.82
2023-11-27T19:37:37.587Z,3.35
2023-11-27T19:40:17.428Z,3.67
2023-11-27T19:42:45.171Z,3.30
2023-11-27T19:45:14.293Z,5.30
2023-11-27T19:47:42.094Z,3.22
2023-11-27T19:50:11.129Z,4.13
2023-11-27T19:52:38.982Z,3.65
2023-11-27T19:55:07.866Z,4.90
2023-11-27T19:57:35.730Z,3.53
2023-11-27T20:00:04.387Z,3.33
2023-11-27T20:02:36.670Z,4.28
2023-11-27T20:05:06.732Z,2.75
2023-11-27T20:07:34.496Z,3.65
2023-11-27T20:10:03.580Z,4.55
2023-11-27T20:12:32.228Z,3.38
2023-11-27T20:14:59.992Z,3.72
2023-11-27T20:17:28.177Z,3.60
2023-11-27T20:19:57.334Z,6.63
2023-11-27T20:22:25.150Z,4.13
2023-11-27T20:24:52.947Z,8.73
2023-11-27T20:27:20.697Z,3.78
2023-11-27T20:29:48.352Z,2.33
2023-11-27T20:32:16.123Z,3.45
2023-11-27T20:34:44.901Z,3.15
2023-11-27T20:37:14.486Z,4.72
2023-11-27T20:39:42.401Z,3.45
2023-11-27T20:42:10.138Z,3.25
2023-11-27T20:44:47.642Z,2.65
2023-11-27T20:47:19.292Z,2.47
2023-11-27T20:49:47.108Z,3.13
2023-11-27T20:52:17.523Z,3.38
2023-11-27T20:54:47.224Z,2.75
2023-11-27T20:57:15.147Z,1.40
2023-11-27T20:59:42.996Z,1.90
2023-11-27T21:02:10.792Z,2.58
2023-11-27T21:04:41.980Z,3.42
2023-11-27T21:07:12.303Z,1.10
2023-11-27T21:09:42.488Z,2.78
2023-11-27T21:12:10.620Z,4.82
2023-11-27T21:14:38.305Z,2.38
2023-11-27T21:17:06.463Z,2.95
2023-11-27T21:19:35.768Z,4.28
2023-11-27T21:22:04.518Z,5.30
2023-11-27T21:24:32.282Z,2.03
2023-11-27T21:27:04.688Z,5.05
2023-11-27T21:29:33.772Z,5.38
2023-11-27T21:32:01.803Z,1.98
2023-11-27T21:34:29.553Z,10.23
2023-11-27T21:36:57.196Z,7.45
2023-11-27T21:39:24.887Z,6.97
2023-11-27T21:41:52.532Z,7.57
2023-11-27T21:44:21.602Z,6.65
2023-11-27T21:46:49.359Z,4.25
2023-11-27T21:49:17.180Z,3.95
2023-11-27T21:51:44.872Z,5.45
2023-11-27T21:54:13.428Z,5.78
2023-11-27T21:56:41.365Z,4.35
2023-11-27T21:59:09.305Z,2.00
2023-11-27T22:01:38.361Z,3.13
2023-11-27T22:04:06.229Z,4.05
2023-11-27T22:06:34.366Z,3.50
2023-11-27T22:09:02.155Z,4.13
2023-11-27T22:11:29.940Z,4.10
2023-11-27T22:13:57.684Z,2.92
2023-11-27T22:16:25.567Z,3.17
2023-11-27T22:18:54.650Z,1.30
2023-11-27T22:21:22.939Z,2.47
2023-11-27T22:23:51.842Z,2.92
2023-11-27T22:26:19.897Z,2.72
2023-11-27T22:28:48.964Z,3.05
2023-11-27T22:31:20.963Z,2.60
2023-11-27T22:33:49.626Z,2.53
2023-11-27T22:36:19.380Z,5.22
2023-11-27T22:38:47.121Z,2.67
2023-11-27T22:41:14.039Z,1.77
2023-11-27T22:43:41.759Z,2.60
2023-11-27T22:46:10.507Z,2.10
2023-11-27T22:48:38.252Z,2.17
2023-11-27T22:51:06.965Z,3.05
2023-11-27T22:53:36.015Z,2.80
2023-11-27T22:56:03.943Z,3.35
2023-11-27T22:58:32.514Z,1.98
2023-11-27T23:01:00.991Z,4.38
2023-11-27T23:03:28.867Z,1.73
2023-11-27T23:05:56.783Z,1.70
2023-11-27T23:08:24.486Z,1.30
2023-11-27T23:10:54.181Z,2.85
2023-11-27T23:13:22.004Z,4.10
2023-11-27T23:15:49.683Z,2.78
2023-11-27T23:18:17.450Z,1.83
2023-11-27T23:20:45.132Z,2.67
2023-11-27T23:23:12.814Z,1.30
2023-11-27T23:25:44.356Z,1.10
2023-11-27T23:28:14.786Z,2.22
2023-11-27T23:30:43.717Z,1.42
2023-11-27T23:33:11.638Z,1.33
2023-11-27T23:35:39.303Z,3.15
2023-11-27T23:38:07.112Z,1.52
2023-11-27T23:40:36.632Z,1.75
2023-11-27T23:43:04.348Z,1.60
2023-11-27T23:45:34.105Z,1.40
2023-11-27T23:48:01.728Z,1.92
2023-11-27T23:50:29.420Z,1.63
2023-11-27T23:52:57.232Z,1.20
2023-11-27T23:55:24.935Z,1.40
2023-11-27T23:57:52.676Z,1.55
